createdAt,value
2023-07-26T00:02:12.134Z,99361.75
2023-07-26T00:05:14.936Z,99376.69
2023-07-26T00:08:17.827Z,99364.59
2023-07-26T00:11:20.559Z,99371.59
2023-07-26T00:14:22.963Z,99363.53
2023-07-26T00:17:25.722Z,99360.97
2023-07-26T00:20:28.186Z,99336.44
2023-07-26T00:23:31.741Z,99325.00
2023-07-26T00:26:34.623Z,99306.00
2023-07-26T00:29:37.611Z,99311.22
2023-07-26T00:32:40.137Z,99291.06
2023-07-26T00:35:44.226Z,99283.87
2023-07-26T00:38:47.743Z,99268.19
2023-07-26T00:41:50.494Z,99249.81
2023-07-26T00:44:52.948Z,99237.41
2023-07-26T00:47:57.270Z,99243.75
2023-07-26T00:51:01.143Z,99212.78
2023-07-26T00:54:05.199Z,99202.25
2023-07-26T00:57:07.735Z,99205.69
2023-07-26T01:00:11.720Z,99213.69
2023-07-26T01:03:15.345Z,99220.84
2023-07-26T01:07:03.204Z,99219.94
2023-07-26T01:10:08.567Z,99223.41
2023-07-26T01:14:04.225Z,99213.81
2023-07-26T01:17:08.407Z,99197.03
2023-07-26T01:20:11.618Z,99177.03
2023-07-26T01:23:14.156Z,99177.72
2023-07-26T01:26:16.917Z,99176.19
2023-07-26T01:29:19.327Z,99171.53
2023-07-26T01:32:25.271Z,99174.31
2023-07-26T01:35:29.503Z,99169.16
2023-07-26T01:38:33.007Z,99164.28
2023-07-26T01:41:36.615Z,99163.31
2023-07-26T01:44:40.144Z,99167.56
2023-07-26T01:47:42.838Z,99175.41
2023-07-26T01:50:45.591Z,99177.09
2023-07-26T01:53:48.080Z,99191.09
2023-07-26T01:56:52.406Z,99199.13
2023-07-26T01:59:55.419Z,99205.09
2023-07-26T02:02:58.108Z,99221.91
2023-07-26T02:06:01.205Z,99232.44
2023-07-26T02:09:03.776Z,99233.22
2023-07-26T02:12:06.869Z,99231.47
2023-07-26T02:15:09.721Z,99240.22
2023-07-26T02:18:12.468Z,99250.91
2023-07-26T02:21:14.925Z,99257.94
2023-07-26T02:24:19.425Z,99260.53
2023-07-26T02:27:21.961Z,99248.91
2023-07-26T02:30:24.847Z,99256.03
2023-07-26T02:33:27.335Z,99254.41
2023-07-26T02:36:30.072Z,99257.88
2023-07-26T02:39:32.530Z,99257.59
2023-07-26T02:42:35.322Z,99265.59
2023-07-26T02:45:37.811Z,99253.25
2023-07-26T02:48:40.726Z,99240.06
2023-07-26T02:51:43.182Z,99234.72
2023-07-26T02:54:45.907Z,99224.03
2023-07-26T02:57:48.362Z,99224.81
2023-07-26T03:00:54.712Z,99220.50
2023-07-26T03:03:58.128Z,99218.78
2023-07-26T03:07:00.850Z,99231.28
2023-07-26T03:10:03.849Z,99227.62
2023-07-26T03:13:07.002Z,99203.66
2023-07-26T03:16:09.589Z,99197.47
2023-07-26T03:19:12.296Z,99202.28
2023-07-26T03:22:14.689Z,99216.34
2023-07-26T03:25:17.451Z,99223.47
2023-07-26T03:28:19.936Z,99251.63
2023-07-26T03:31:22.650Z,99252.66
2023-07-26T03:34:26.049Z,99257.78
2023-07-26T03:37:28.933Z,99247.94
2023-07-26T03:40:31.470Z,99256.75
2023-07-26T03:43:34.194Z,99257.78
2023-07-26T03:46:36.695Z,99277.87
2023-07-26T03:49:40.502Z,99291.03
2023-07-26T03:52:42.967Z,99291.91
2023-07-26T03:55:45.677Z,99281.25
2023-07-26T03:58:49.105Z,99286.59
2023-07-26T04:01:51.924Z,99289.09
2023-07-26T04:04:54.737Z,99293.56
2023-07-26T04:07:57.630Z,99298.13
2023-07-26T04:11:04.095Z,99294.41
2023-07-26T04:14:06.584Z,99284.91
2023-07-26T04:17:09.409Z,99303.19
2023-07-26T04:20:12.265Z,99319.88
2023-07-26T04:23:14.962Z,99336.88
2023-07-26T04:26:17.361Z,99336.22
2023-07-26T04:29:20.578Z,99335.28
2023-07-26T04:32:23.065Z,99343.06
2023-07-26T04:35:25.774Z,99343.88
2023-07-26T04:38:28.474Z,99324.81
2023-07-26T04:41:31.187Z,99333.94
2023-07-26T04:44:33.606Z,99335.03
2023-07-26T04:47:36.472Z,99332.66
2023-07-26T04:50:39.051Z,99331.72
2023-07-26T04:53:41.789Z,99339.47
2023-07-26T04:56:44.251Z,99342.59
2023-07-26T04:59:46.936Z,99340.00
2023-07-26T05:02:49.603Z,99349.84
2023-07-26T05:05:52.957Z,99336.59
2023-07-26T05:08:55.374Z,99338.13
2023-07-26T05:11:58.134Z,99336.47
2023-07-26T05:15:00.629Z,99326.38
2023-07-26T05:18:03.637Z,99339.63
2023-07-26T05:21:06.089Z,99348.44
2023-07-26T05:24:08.796Z,99355.00
2023-07-26T05:27:11.232Z,99349.84
2023-07-26T05:30:16.316Z,99359.97
2023-07-26T05:33:18.747Z,99367.03
2023-07-26T05:36:21.492Z,99365.91
2023-07-26T05:39:23.938Z,99362.13
2023-07-26T05:42:26.633Z,99352.00
2023-07-26T05:45:29.093Z,99356.62
2023-07-26T05:48:31.939Z,99355.03
2023-07-26T05:51:34.647Z,99361.41
2023-07-26T05:54:37.794Z,99367.00
2023-07-26T05:57:40.796Z,99372.47
2023-07-26T06:00:43.497Z,99389.47
2023-07-26T06:03:47.159Z,99394.78
2023-07-26T06:06:49.921Z,99394.81
2023-07-26T06:09:52.760Z,99397.25
2023-07-26T06:12:55.196Z,99401.47
2023-07-26T06:15:57.966Z,99406.75
2023-07-26T06:19:00.567Z,99402.56
2023-07-26T06:22:03.613Z,99410.56
2023-07-26T06:25:06.320Z,99408.81
2023-07-26T06:28:09.172Z,99408.09
2023-07-26T06:31:12.077Z,99406.34
2023-07-26T06:34:15.151Z,99409.78
2023-07-26T06:37:17.639Z,99412.41
2023-07-26T06:40:20.356Z,99416.38
2023-07-26T06:43:22.813Z,99425.09
2023-07-26T06:46:25.602Z,99423.28
2023-07-26T06:49:28.121Z,99430.56
2023-07-26T06:52:31.867Z,99429.84
2023-07-26T06:55:35.130Z,99436.22
2023-07-26T06:58:37.869Z,99447.81
2023-07-26T07:01:40.642Z,99440.97
2023-07-26T07:04:43.458Z,99443.53
2023-07-26T07:07:45.931Z,99448.78
2023-07-26T07:10:48.741Z,99461.25
2023-07-26T07:13:51.305Z,99464.81
2023-07-26T07:16:54.229Z,99464.75
2023-07-26T07:19:56.725Z,99462.28
2023-07-26T07:22:59.458Z,99461.34
2023-07-26T07:26:01.904Z,99472.09
2023-07-26T07:29:05.066Z,99474.00
2023-07-26T07:32:20.981Z,99479.28
2023-07-26T07:35:25.115Z,99502.34
2023-07-26T07:38:27.604Z,99500.63
2023-07-26T07:41:30.561Z,99511.22
2023-07-26T07:44:33.267Z,99525.41
2023-07-26T07:47:36.016Z,99533.28
2023-07-26T07:50:38.470Z,99533.34
2023-07-26T07:53:41.143Z,99536.13
2023-07-26T07:56:44.268Z,99543.28
2023-07-26T07:59:47.008Z,99544.13
2023-07-26T08:02:49.480Z,99552.16
2023-07-26T08:05:53.095Z,99561.78
2023-07-26T08:08:55.506Z,99560.00
2023-07-26T08:11:59.164Z,99558.37
2023-07-26T08:15:01.628Z,99557.47
2023-07-26T08:18:06.051Z,99562.69
2023-07-26T08:21:11.755Z,99552.13
2023-07-26T08:24:14.477Z,99538.88
2023-07-26T08:27:17.160Z,99539.66
2023-07-26T08:30:19.949Z,99534.44
2023-07-26T08:33:22.368Z,99559.72
2023-07-26T08:36:25.378Z,99557.72
2023-07-26T08:39:35.587Z,99568.28
2023-07-26T08:42:39.203Z,99571.66
2023-07-26T08:45:45.189Z,99579.59
2023-07-26T08:48:48.948Z,99582.09
2023-07-26T08:51:51.727Z,99590.81
2023-07-26T08:54:54.796Z,99597.97
2023-07-26T08:57:58.506Z,99606.06
2023-07-26T09:01:01.492Z,99602.44
2023-07-26T09:04:04.969Z,99601.56
2023-07-26T09:07:07.925Z,99602.47
2023-07-26T09:10:10.633Z,99606.16
2023-07-26T09:13:15.931Z,99610.44
2023-07-26T09:16:20.583Z,99624.44
2023-07-26T09:19:33.990Z,99628.09
2023-07-26T09:22:36.510Z,99620.81
2023-07-26T09:25:41.445Z,99620.59
2023-07-26T09:28:53.754Z,99611.38
2023-07-26T09:31:56.844Z,99609.25
2023-07-26T09:35:01.509Z,99603.03
2023-07-26T09:38:15.480Z,99598.38
2023-07-26T09:41:26.919Z,99596.78
2023-07-26T09:44:29.600Z,99600.56
2023-07-26T09:47:41.295Z,99596.00
2023-07-26T09:53:56.074Z,99569.84
2023-07-26T09:56:59.819Z,99577.19
2023-07-26T10:00:05.755Z,99592.50
2023-07-26T10:03:10.371Z,99590.06
2023-07-26T10:06:14.565Z,99599.72
2023-07-26T10:09:17.886Z,99605.22
2023-07-26T10:12:24.501Z,99620.37
2023-07-26T10:15:31.526Z,99626.94
2023-07-26T10:18:35.161Z,99609.66
2023-07-26T10:21:38.340Z,99621.31
2023-07-26T10:24:42.393Z,99617.72
2023-07-26T10:27:46.155Z,99625.41
2023-07-26T10:30:52.688Z,99626.31
2023-07-26T10:33:56.338Z,99626.28
2023-07-26T10:36:59.055Z,99622.03
2023-07-26T10:40:27.016Z,99620.63
2023-07-26T10:43:29.386Z,99629.13
2023-07-26T10:46:50.681Z,99637.91
2023-07-26T10:49:56.087Z,99630.22
2023-07-26T10:52:58.827Z,99617.34
2023-07-26T10:56:20.746Z,99616.78
2023-07-26T10:59:28.248Z,99615.78
2023-07-26T11:02:43.529Z,99627.09
2023-07-26T11:05:56.611Z,99632.44
2023-07-26T11:08:59.161Z,99645.63
2023-07-26T11:12:13.507Z,99647.72
2023-07-26T11:16:13.478Z,99649.19
2023-07-26T11:18:44.283Z,99661.12
2023-07-26T11:21:46.909Z,99663.72
2023-07-26T11:24:50.385Z,99666.09
2023-07-26T11:27:52.928Z,99664.28
2023-07-26T11:30:57.432Z,99660.81
2023-07-26T11:34:00.530Z,99655.88
2023-07-26T11:37:13.615Z,99659.47
2023-07-26T11:40:16.137Z,99658.03
2023-07-26T11:43:18.934Z,99661.50
2023-07-26T11:46:28.740Z,99664.78
2023-07-26T11:49:33.902Z,99658.22
2023-07-26T11:52:36.845Z,99668.28
2023-07-26T11:55:41.937Z,99653.13
2023-07-26T11:58:45.377Z,99667.72
2023-07-26T12:01:49.094Z,99666.81
2023-07-26T12:05:17.841Z,99655.63
2023-07-26T12:08:21.635Z,99645.81
2023-07-26T12:11:24.858Z,99655.97
2023-07-26T12:14:32.523Z,99654.41
2023-07-26T12:17:35.445Z,99669.22
2023-07-26T12:21:01.625Z,99665.87
2023-07-26T12:24:07.505Z,99655.50
2023-07-26T12:27:11.056Z,99658.19
2023-07-26T12:30:14.344Z,99656.41
2023-07-26T12:33:16.843Z,99657.50
2023-07-26T12:36:19.939Z,99667.44
2023-07-26T12:39:23.138Z,99665.59
2023-07-26T12:42:26.274Z,99663.31
2023-07-26T12:45:28.838Z,99661.28
2023-07-26T12:48:34.624Z,99667.06
2023-07-26T12:51:39.513Z,99668.44
2023-07-26T12:54:42.507Z,99677.03
2023-07-26T12:57:45.077Z,99679.38
2023-07-26T13:00:49.145Z,99678.12
2023-07-26T13:03:51.678Z,99682.53
2023-07-26T13:06:54.526Z,99673.19
2023-07-26T13:09:56.987Z,99695.13
2023-07-26T13:12:59.797Z,99687.06
2023-07-26T13:16:02.613Z,99690.38
2023-07-26T13:19:05.966Z,99699.16
2023-07-26T13:22:08.566Z,99702.41
2023-07-26T13:25:11.568Z,99712.37
2023-07-26T13:28:14.038Z,99710.94
2023-07-26T13:31:17.987Z,99713.13
2023-07-26T13:34:20.866Z,99711.44
2023-07-26T13:37:23.580Z,99713.56
2023-07-26T13:40:26.967Z,99716.78
2023-07-26T13:43:30.901Z,99707.31
2023-07-26T13:46:35.497Z,99717.97
2023-07-26T13:49:38.679Z,99715.44
2023-07-26T13:52:41.082Z,99709.25
2023-07-26T13:55:43.796Z,99709.63
2023-07-26T13:58:48.998Z,99709.69
2023-07-26T14:01:52.291Z,99718.91
2023-07-26T14:04:55.122Z,99714.25
2023-07-26T14:07:57.617Z,99714.09
2023-07-26T14:11:00.551Z,99715.88
2023-07-26T14:14:06.147Z,99716.34
2023-07-26T14:17:08.963Z,99709.34
2023-07-26T14:20:11.863Z,99717.28
2023-07-26T14:23:14.873Z,99710.28
2023-07-26T14:26:17.419Z,99713.56
2023-07-26T14:29:20.213Z,99712.66
2023-07-26T14:32:22.714Z,99705.78
2023-07-26T14:35:25.516Z,99716.66
2023-07-26T14:38:28.081Z,99713.09
2023-07-26T14:41:30.806Z,99716.66
2023-07-26T14:44:33.215Z,99726.41
2023-07-26T14:47:36.019Z,99733.97
2023-07-26T14:50:38.606Z,99732.28
2023-07-26T14:53:41.364Z,99733.34
2023-07-26T14:56:50.509Z,99735.78
2023-07-26T14:59:56.439Z,99733.81
2023-07-26T15:02:59.562Z,99739.88
2023-07-26T15:06:02.446Z,99737.88
2023-07-26T15:09:04.926Z,99755.19
2023-07-26T15:12:08.465Z,99746.06
2023-07-26T15:15:12.956Z,99760.13
2023-07-26T15:18:15.709Z,99754.25
2023-07-26T15:21:18.329Z,99762.03
2023-07-26T15:24:21.372Z,99779.09
2023-07-26T15:27:23.891Z,99773.13
2023-07-26T15:30:28.261Z,99770.69
2023-07-26T15:33:30.810Z,99783.34
2023-07-26T15:36:33.609Z,99779.75
2023-07-26T15:39:36.110Z,99777.16
2023-07-26T15:42:39.592Z,99788.81
2023-07-26T15:48:47.960Z,99786.38
2023-07-26T15:51:51.074Z,99787.44
2023-07-26T15:54:53.748Z,99797.31
2023-07-26T15:57:56.276Z,99782.38
2023-07-26T16:00:59.208Z,99797.34
2023-07-26T16:04:02.019Z,99792.03
2023-07-26T16:07:04.863Z,99799.41
2023-07-26T16:10:08.098Z,99805.75
2023-07-26T16:13:11.571Z,99803.37
2023-07-26T16:22:42.457Z,99805.31
2023-07-26T16:25:45.827Z,99815.09
2023-07-26T16:28:48.541Z,99824.91
2023-07-26T16:31:51.304Z,99832.81
2023-07-26T16:34:54.052Z,99821.47
2023-07-26T16:37:56.467Z,99823.38
2023-07-26T16:40:59.160Z,99835.78
2023-07-26T16:44:02.119Z,99833.22
2023-07-26T16:47:09.275Z,99828.06
2023-07-26T16:50:14.958Z,99842.38
2023-07-26T16:53:17.859Z,99847.63
2023-07-26T16:56:20.446Z,99857.41
2023-07-26T16:59:23.212Z,99852.31
2023-07-26T17:02:26.310Z,99848.06
2023-07-26T17:05:29.248Z,99838.41
2023-07-26T17:08:31.742Z,99852.62
2023-07-26T17:11:34.605Z,99857.16
2023-07-26T17:14:37.094Z,99865.22
2023-07-26T17:17:39.969Z,99878.47
2023-07-26T17:20:44.735Z,99889.16
2023-07-26T17:23:47.767Z,99892.72
2023-07-26T17:26:50.267Z,99880.44
2023-07-26T17:29:53.118Z,99901.75
2023-07-26T17:32:55.597Z,99899.31
2023-07-26T17:35:58.682Z,99897.50
2023-07-26T17:39:05.194Z,99898.50
2023-07-26T17:42:08.226Z,99918.88
2023-07-26T17:45:12.205Z,99924.25
2023-07-26T17:48:15.501Z,99925.19
2023-07-26T17:51:19.015Z,99918.13
2023-07-26T17:54:22.832Z,99926.13
2023-07-26T17:57:26.118Z,99934.13
2023-07-26T18:00:28.916Z,99939.47
2023-07-26T18:03:31.993Z,99944.81
2023-07-26T18:06:34.483Z,99951.00
2023-07-26T18:09:37.380Z,99953.69
2023-07-26T18:12:39.787Z,99957.31
2023-07-26T18:15:42.638Z,99960.00
2023-07-26T18:18:45.143Z,99967.97
2023-07-26T18:21:47.975Z,99975.03
2023-07-26T18:24:50.958Z,99988.25
2023-07-26T18:27:57.055Z,99989.12
2023-07-26T18:31:06.004Z,99986.53
2023-07-26T18:34:09.106Z,99992.69
2023-07-26T18:37:14.235Z,100000.63
2023-07-26T18:40:16.954Z,100014.69
2023-07-26T18:43:22.748Z,100026.13
2023-07-26T18:46:25.662Z,100023.50
2023-07-26T18:49:28.753Z,100022.66
2023-07-26T18:52:31.484Z,100030.59
2023-07-26T18:55:40.784Z,100030.59
2023-07-26T18:58:44.657Z,100051.72
2023-07-26T19:01:48.456Z,100052.59
2023-07-26T19:04:51.535Z,100069.31
2023-07-26T19:07:54.046Z,100066.66
2023-07-26T19:10:57.736Z,100052.62
2023-07-26T19:14:00.669Z,100057.87
2023-07-26T19:17:03.874Z,100057.84
2023-07-26T19:20:08.411Z,100062.25
2023-07-26T19:23:11.103Z,100067.53
2023-07-26T19:26:16.234Z,100071.91
2023-07-26T19:29:19.190Z,100080.69
2023-07-26T19:32:21.858Z,100093.00
2023-07-26T19:35:26.479Z,100089.47
2023-07-26T19:38:32.153Z,100093.88
2023-07-26T19:41:35.083Z,100096.47
2023-07-26T19:44:37.596Z,100093.88
2023-07-26T19:47:40.601Z,100080.66
2023-07-26T19:50:43.124Z,100075.38
2023-07-26T19:53:46.612Z,100080.66
2023-07-26T19:56:49.190Z,100078.88
2023-07-26T19:59:51.977Z,100087.66
2023-07-26T20:02:54.537Z,100096.44
2023-07-26T20:05:58.041Z,100092.03
2023-07-26T20:09:00.496Z,100092.03
2023-07-26T20:12:04.448Z,100099.91
2023-07-26T20:15:08.463Z,100104.28
2023-07-26T20:18:11.670Z,100108.66
2023-07-26T20:21:14.299Z,100111.25
2023-07-26T20:24:17.057Z,100115.66
2023-07-26T20:27:19.586Z,100116.53
2023-07-26T20:30:22.437Z,100134.06
2023-07-26T20:33:24.959Z,100141.09
2023-07-26T20:36:27.832Z,100138.47
2023-07-26T20:39:30.314Z,100146.34
2023-07-26T20:42:33.065Z,100155.09
2023-07-26T20:45:36.457Z,100153.31
2023-07-26T20:48:39.156Z,100155.03
2023-07-26T20:51:41.591Z,100148.87
2023-07-26T20:54:45.112Z,100154.97
2023-07-26T20:57:47.647Z,100157.56
2023-07-26T21:00:51.958Z,100161.03
2023-07-26T21:03:54.580Z,100169.78
2023-07-26T21:06:57.321Z,100176.78
2023-07-26T21:09:59.837Z,100187.19
2023-07-26T21:13:02.728Z,100174.03
2023-07-26T21:16:05.487Z,100178.47
2023-07-26T21:19:08.222Z,100183.63
2023-07-26T21:22:11.162Z,100182.75
2023-07-26T21:25:13.922Z,100186.31
2023-07-26T21:28:18.413Z,100178.47
2023-07-26T21:31:22.055Z,100187.34
2023-07-26T21:34:25.196Z,100181.25
2023-07-26T21:37:27.904Z,100179.50
2023-07-26T21:40:30.369Z,100177.72
2023-07-26T21:43:33.113Z,100183.84
2023-07-26T21:46:35.885Z,100182.97
2023-07-26T21:49:39.240Z,100175.94
2023-07-26T21:52:41.718Z,100161.81
2023-07-26T21:55:44.451Z,100170.53
2023-07-26T21:58:46.870Z,100163.44
2023-07-26T22:01:49.621Z,100169.59
2023-07-26T22:04:52.765Z,100181.84
2023-07-26T22:07:58.487Z,100185.25
2023-07-26T22:11:06.826Z,100187.06
2023-07-26T22:14:09.254Z,100190.56
2023-07-26T22:17:12.066Z,100186.19
2023-07-26T22:20:14.624Z,100183.53
2023-07-26T22:23:17.372Z,100190.56
2023-07-26T22:26:21.749Z,100194.97
2023-07-26T22:29:24.761Z,100198.44
2023-07-26T22:32:27.339Z,100197.56
2023-07-26T22:35:30.052Z,100198.41
2023-07-26T22:38:32.488Z,100200.16
2023-07-26T22:41:35.296Z,100205.38
2023-07-26T22:44:38.190Z,100206.22
2023-07-26T22:47:41.268Z,100200.94
2023-07-26T22:50:43.657Z,100216.63
2023-07-26T22:53:49.646Z,100214.88
2023-07-26T22:56:52.156Z,100216.63
2023-07-26T22:59:54.892Z,100221.03
2023-07-26T23:02:57.371Z,100215.72
2023-07-26T23:06:01.643Z,100221.91
2023-07-26T23:09:04.240Z,100215.72
2023-07-26T23:12:07.655Z,100229.75
2023-07-26T23:15:10.524Z,100229.66
2023-07-26T23:18:13.201Z,100225.28
2023-07-26T23:21:15.661Z,100232.25
2023-07-26T23:24:18.530Z,100227.81
2023-07-26T23:27:21.103Z,100227.75
2023-07-26T23:30:23.776Z,100233.00
2023-07-26T23:33:26.202Z,100238.19
2023-07-26T23:36:28.985Z,100234.69
2023-07-26T23:39:32.821Z,100233.87
2023-07-26T23:42:35.544Z,100233.00
2023-07-26T23:45:38.554Z,100236.38
2023-07-26T23:48:41.392Z,100236.38
2023-07-26T23:51:43.880Z,100234.63
2023-07-26T23:54:46.674Z,100240.78
2023-07-26T23:57:49.079Z,100238.13
